APL Jeddah — S6HU4 — position and weather

sailwx.info

Track history (hours):
 
Tides and Currents Weather Stations Pressure Air Temp Water Temp Dewpoint Dewpoint Depression Visibility Wind Speed Wind Dir Waves Ship Positions

APL Jeddah

Last reported at 2018-Aug-17 17:38 UTC. Time now 2018-Aug-18 22:29 UTC.
Position N 25°46' E 121°23'.

Length 207 m; draft 9.4 m.

Type: Cargo ship. MMSI: 563478538.

Date/timePositionNaut miles runAvg speedWind from/ knotsBaromVisibWave heightAir tempDewpointWater temp
2018-Aug-17 17:38N 25°46' E 121°23'3120.5
2018-Aug-17 16:06N 26°05' E 121°51'220.7
2018-Aug-17 16:00N 26°05' E 121°53'80618.1
2018-Aug-15 19:31N 33°38' E 134°42'019.3
2018-Aug-15 19:30N 33°38' E 134°42'1018.7
2018-Aug-15 18:57N 33°46' E 134°50'819.1
2018-Aug-15 18:30N 33°54' E 134°54'1019.3
2018-Aug-15 18:00N 34°03' E 134°57'918.8
2018-Aug-15 17:30N 34°13' E 134°57'612.6
2018-Aug-15 17:00N 34°19' E 134°59'918.7
2018-Aug-15 16:30N 34°26' E 135°05'1020.1
2018-Aug-15 16:01N 34°34' E 135°14'612.0
2018-Aug-15 15:30N 34°40' E 135°14'0 0.5
2018-Aug-15 14:59N 34°40' E 135°14'0 0.0
2018-Aug-15 14:29N 34°40' E 135°14'0 0.0
2018-Aug-15 13:59N 34°40' E 135°14'0 0.0
2018-Aug-15 13:29N 34°40' E 135°14'0 0.0
2018-Aug-15 12:59N 34°40' E 135°14'0 0.0
2018-Aug-15 12:20N 34°40' E 135°14'0 0.0
2018-Aug-15 11:56N 34°40' E 135°14'0 0.0
2018-Aug-15 11:23N 34°40' E 135°14'0 0.0
2018-Aug-15 10:50N 34°40' E 135°14'0 0.0
2018-Aug-15 10:29N 34°40' E 135°14'0 0.0
2018-Aug-15 09:59N 34°40' E 135°14'0 0.0
2018-Aug-15 09:29N 34°40' E 135°14'0 0.0
2018-Aug-15 08:59N 34°40' E 135°14'0 0.0
2018-Aug-15 08:26N 34°40' E 135°14'0 0.0
2018-Aug-15 07:59N 34°40' E 135°14'0 0.0
2018-Aug-15 07:29N 34°40' E 135°14'0 0.0
2018-Aug-15 06:59N 34°40' E 135°14'0 0.0
2018-Aug-15 06:26N 34°40' E 135°14'0 0.0
2018-Aug-15 05:59N 34°40' E 135°14'0 0.0
2018-Aug-15 05:26N 34°40' E 135°14'0 0.0
2018-Aug-15 04:59N 34°40' E 135°14'0 0.0
2018-Aug-15 04:29N 34°40' E 135°14'0 0.0
2018-Aug-15 03:59N 34°40' E 135°14'0 0.4
2018-Aug-15 03:30N 34°40' E 135°14'3 6.1
2018-Aug-15 03:00N 34°37' E 135°16'5 9.3
2018-Aug-15 02:30N 34°33' E 135°14'713.2
2018-Aug-15 02:00N 34°29' E 135°08'918.9
2018-Aug-15 01:30N 34°21' E 135°01'918.5
2018-Aug-15 01:00N 34°12' E 134°59'613.2
2018-Aug-15 00:30N 34°05' E 134°59'1015.5
2018-Aug-14 23:51N 33°55' E 134°58'617.5
2018-Aug-14 23:30N 33°49' E 134°58'816.9
2018-Aug-14 23:00N 33°42' E 135°03'219 7.1
2018-Aug-13 15:58N 34°50' E 139°15'5 9.9
2018-Aug-13 15:30N 34°53' E 139°19'5 9.6
2018-Aug-13 15:00N 34°55' E 139°24'5 9.5
2018-Aug-13 14:30N 34°57' E 139°29'5 9.9
2018-Aug-13 14:00N 34°59' E 139°34'611.2
2018-Aug-13 13:30N 35°03' E 139°40'611.3
2018-Aug-13 13:00N 35°07' E 139°44'611.0
2018-Aug-13 12:30N 35°12' E 139°46'611.0
2018-Aug-13 12:01N 35°18' E 139°44'713.0
2018-Aug-13 11:31N 35°24' E 139°42'2 5.0
2018-Aug-13 11:00N 35°26' E 139°41'0 0.0
2018-Aug-13 10:30N 35°26' E 139°41'0 0.0
2018-Aug-13 10:00N 35°26' E 139°41'0 0.0
2018-Aug-13 09:30N 35°26' E 139°41'0 0.0
2018-Aug-13 09:00N 35°26' E 139°41'0 0.0
2018-Aug-13 08:30N 35°26' E 139°41'0 0.0
2018-Aug-13 08:00N 35°26' E 139°41'0 0.0
2018-Aug-13 07:30N 35°26' E 139°41'0 0.0
2018-Aug-13 07:00N 35°26' E 139°41'0 0.0
2018-Aug-13 06:30N 35°26' E 139°41'0 0.0
2018-Aug-13 06:00N 35°26' E 139°41'0 0.0
2018-Aug-13 05:30N 35°26' E 139°41'0 0.0
2018-Aug-13 05:00N 35°26' E 139°41'0 0.0
2018-Aug-13 04:30N 35°26' E 139°41'0 0.0
2018-Aug-13 04:00N 35°26' E 139°41'0 0.0
2018-Aug-13 03:30N 35°26' E 139°41'0 0.0
2018-Aug-13 03:00N 35°26' E 139°41'0 0.0
2018-Aug-13 02:30N 35°26' E 139°41'0 0.0
2018-Aug-13 02:00N 35°26' E 139°41'0 0.0
2018-Aug-13 01:30N 35°26' E 139°41'0 0.0
2018-Aug-13 01:00N 35°26' E 139°41'0 0.0
2018-Aug-13 00:30N 35°26' E 139°41'0 0.0
2018-Aug-13 00:00N 35°26' E 139°41'0 0.0
2018-Aug-12 23:30N 35°26' E 139°41'0 0.0
2018-Aug-12 23:00N 35°26' E 139°41'0 0.0
2018-Aug-12 22:30N 35°26' E 139°41'0 0.0
2018-Aug-12 22:00N 35°26' E 139°41'0 0.0
2018-Aug-12 21:30N 35°26' E 139°41'0 0.0
2018-Aug-12 21:00N 35°26' E 139°41'0 0.0
2018-Aug-12 20:30N 35°26' E 139°41'0 0.0
2018-Aug-12 20:00N 35°26' E 139°41'0 0.0
2018-Aug-12 19:30N 35°26' E 139°41'0 0.0
2018-Aug-12 19:00N 35°26' E 139°41'0 0.0
2018-Aug-12 18:30N 35°26' E 139°41'0 0.0
2018-Aug-12 18:00N 35°26' E 139°41'0 0.0
2018-Aug-12 17:30N 35°26' E 139°41'0 0.0
2018-Aug-12 17:00N 35°26' E 139°41'0 0.0
2018-Aug-12 16:30N 35°26' E 139°41'1 2.1
2018-Aug-12 16:00N 35°26' E 139°42'2 4.8
2018-Aug-12 15:30N 35°27' E 139°45'0 0.1
2018-Aug-12 14:57N 35°27' E 139°45'0 0.0
2018-Aug-12 14:30N 35°27' E 139°45'0 0.0
2018-Aug-12 14:00N 35°27' E 139°45'0 0.0
2018-Aug-12 13:30N 35°27' E 139°45'0 0.0
2018-Aug-12 13:00N 35°27' E 139°45'0 0.0
2018-Aug-12 12:30N 35°27' E 139°45'0 0.0
2018-Aug-12 12:00N 35°27' E 139°45'0 0.0
2018-Aug-12 11:30N 35°27' E 139°45'0 0.0
2018-Aug-12 11:00N 35°27' E 139°45'0 0.1
2018-Aug-12 10:30N 35°27' E 139°45'0 0.1
2018-Aug-12 10:00N 35°27' E 139°45'0 0.1
2018-Aug-12 09:30N 35°27' E 139°45'0 0.1
2018-Aug-12 09:00N 35°27' E 139°45'0 0.0
2018-Aug-12 08:30N 35°27' E 139°45'0 0.0
2018-Aug-12 07:57N 35°27' E 139°45'0 0.1
2018-Aug-12 07:30N 35°27' E 139°45'0 0.0
2018-Aug-12 07:00N 35°27' E 139°45'0 0.1
2018-Aug-12 06:30N 35°27' E 139°45'0 0.0
2018-Aug-12 06:00N 35°27' E 139°45'0 0.0
2018-Aug-12 05:30N 35°27' E 139°45'0 0.0
2018-Aug-12 05:01N 35°27' E 139°45'0 0.1
2018-Aug-12 04:31N 35°27' E 139°45'0 0.1
2018-Aug-12 04:01N 35°27' E 139°45'0 0.0
2018-Aug-12 03:29N 35°27' E 139°45'0 0.0
2018-Aug-12 03:01N 35°27' E 139°45'0 0.0
2018-Aug-12 02:31N 35°27' E 139°45'0 0.0
2018-Aug-12 02:01N 35°27' E 139°45'0 0.0
2018-Aug-12 01:31N 35°27' E 139°45'0 0.0
2018-Aug-12 01:01N 35°27' E 139°45'0 0.0
2018-Aug-12 00:31N 35°27' E 139°45'0 0.0
2018-Aug-12 00:00N 35°27' E 139°45'0 0.0
2018-Aug-11 23:30N 35°27' E 139°45'0 0.0
2018-Aug-11 23:00N 35°27' E 139°45'0 0.0
2018-Aug-11 22:30N 35°27' E 139°45'0 1.0
2018-Aug-11 22:01N 35°26' E 139°46'2 4.6
2018-Aug-11 21:30N 35°28' E 139°48'5 9.8
2018-Aug-11 21:00N 35°32' E 139°51'510.3
2018-Aug-11 20:30N 35°36' E 139°47'0 0.3
2018-Aug-11 19:58N 35°36' E 139°47'0 0.0
2018-Aug-11 11:19N 35°36' E 139°47'0 0.0
2018-Aug-11 10:49N 35°36' E 139°47'0 0.0
2018-Aug-11 10:25N 35°36' E 139°47'0 0.0
2018-Aug-11 09:49N 35°36' E 139°47'0 0.0
2018-Aug-11 09:25N 35°36' E 139°47'0 0.0
2018-Aug-11 08:55N 35°36' E 139°47'0 0.0
2018-Aug-11 08:25N 35°36' E 139°47'0 0.0
2018-Aug-11 07:25N 35°36' E 139°47'0 0.0
2018-Aug-11 06:55N 35°36' E 139°47'0 0.0
2018-Aug-11 05:52N 35°36' E 139°47'0 0.0
2018-Aug-11 05:25N 35°36' E 139°47'0 0.0
2018-Aug-11 04:23N 35°36' E 139°47'1 2.4
2018-Aug-11 04:00N 35°35' E 139°47'4 7.9
2018-Aug-11 03:30N 35°33' E 139°51'3 5.7
2018-Aug-11 03:00N 35°30' E 139°52'611.5
2018-Aug-11 02:30N 35°26' E 139°48'713.0
2018-Aug-11 02:00N 35°20' E 139°44'611.7
2018-Aug-11 01:30N 35°15' E 139°47'611.9
2018-Aug-11 01:00N 35°08' E 139°47'612.6
2018-Aug-11 00:30N 35°03' E 139°42'2 3.6
2018-Aug-11 00:00N 35°02' E 139°41'0 0.5
2018-Aug-10 23:30N 35°02' E 139°41'3 5.1
2018-Aug-10 23:00N 35°00' E 139°38'713.6
2018-Aug-10 22:30N 34°56' E 139°31'1314.5
2018-Aug-10 21:37N 34°48' E 139°19'315.3
2018-Aug-10 21:24N 34°46' E 139°16'  
Track history (hours):
 
Tides and Currents Weather Stations Pressure Air Temp Water Temp Dewpoint Dewpoint Depression Visibility Wind Speed Wind Dir Waves Ship Positions

APL Jeddah

Last reported at 2018-Aug-17 17:38 UTC. Time now 2018-Aug-18 22:29 UTC.
Position N 25°46' E 121°23'.

Length 207 m; draft 9.4 m.

Type: Cargo ship. MMSI: 563478538.

Date/timePositionNaut miles runAvg speedWind from/ knotsBaromVisibWave heightAir tempDewpointWater temp
2018-Aug-17 17:38N 25°46' E 121°23'3120.5
2018-Aug-17 16:06N 26°05' E 121°51'220.7
2018-Aug-17 16:00N 26°05' E 121°53'80618.1
2018-Aug-15 19:31N 33°38' E 134°42'019.3
2018-Aug-15 19:30N 33°38' E 134°42'1018.7
2018-Aug-15 18:57N 33°46' E 134°50'819.1
2018-Aug-15 18:30N 33°54' E 134°54'1019.3
2018-Aug-15 18:00N 34°03' E 134°57'918.8
2018-Aug-15 17:30N 34°13' E 134°57'612.6
2018-Aug-15 17:00N 34°19' E 134°59'918.7
2018-Aug-15 16:30N 34°26' E 135°05'1020.1
2018-Aug-15 16:01N 34°34' E 135°14'612.0
2018-Aug-15 15:30N 34°40' E 135°14'0 0.5
2018-Aug-15 14:59N 34°40' E 135°14'0 0.0
2018-Aug-15 14:29N 34°40' E 135°14'0 0.0
2018-Aug-15 13:59N 34°40' E 135°14'0 0.0
2018-Aug-15 13:29N 34°40' E 135°14'0 0.0
2018-Aug-15 12:59N 34°40' E 135°14'0 0.0
2018-Aug-15 12:20N 34°40' E 135°14'0 0.0
2018-Aug-15 11:56N 34°40' E 135°14'0 0.0
2018-Aug-15 11:23N 34°40' E 135°14'0 0.0
2018-Aug-15 10:50N 34°40' E 135°14'0 0.0
2018-Aug-15 10:29N 34°40' E 135°14'0 0.0
2018-Aug-15 09:59N 34°40' E 135°14'0 0.0
2018-Aug-15 09:29N 34°40' E 135°14'0 0.0
2018-Aug-15 08:59N 34°40' E 135°14'0 0.0
2018-Aug-15 08:26N 34°40' E 135°14'0 0.0
2018-Aug-15 07:59N 34°40' E 135°14'0 0.0
2018-Aug-15 07:29N 34°40' E 135°14'0 0.0
2018-Aug-15 06:59N 34°40' E 135°14'0 0.0
2018-Aug-15 06:26N 34°40' E 135°14'0 0.0
2018-Aug-15 05:59N 34°40' E 135°14'0 0.0
2018-Aug-15 05:26N 34°40' E 135°14'0 0.0
2018-Aug-15 04:59N 34°40' E 135°14'0 0.0
2018-Aug-15 04:29N 34°40' E 135°14'0 0.0
2018-Aug-15 03:59N 34°40' E 135°14'0 0.4
2018-Aug-15 03:30N 34°40' E 135°14'3 6.1
2018-Aug-15 03:00N 34°37' E 135°16'5 9.3
2018-Aug-15 02:30N 34°33' E 135°14'713.2
2018-Aug-15 02:00N 34°29' E 135°08'918.9
2018-Aug-15 01:30N 34°21' E 135°01'918.5
2018-Aug-15 01:00N 34°12' E 134°59'613.2
2018-Aug-15 00:30N 34°05' E 134°59'1015.5
2018-Aug-14 23:51N 33°55' E 134°58'617.5
2018-Aug-14 23:30N 33°49' E 134°58'816.9
2018-Aug-14 23:00N 33°42' E 135°03'219 7.1
2018-Aug-13 15:58N 34°50' E 139°15'5 9.9
2018-Aug-13 15:30N 34°53' E 139°19'5 9.6
2018-Aug-13 15:00N 34°55' E 139°24'5 9.5
2018-Aug-13 14:30N 34°57' E 139°29'5 9.9
2018-Aug-13 14:00N 34°59' E 139°34'611.2
2018-Aug-13 13:30N 35°03' E 139°40'611.3
2018-Aug-13 13:00N 35°07' E 139°44'611.0
2018-Aug-13 12:30N 35°12' E 139°46'611.0
2018-Aug-13 12:01N 35°18' E 139°44'713.0
2018-Aug-13 11:31N 35°24' E 139°42'2 5.0
2018-Aug-13 11:00N 35°26' E 139°41'0 0.0
2018-Aug-13 10:30N 35°26' E 139°41'0 0.0
2018-Aug-13 10:00N 35°26' E 139°41'0 0.0
2018-Aug-13 09:30N 35°26' E 139°41'0 0.0
2018-Aug-13 09:00N 35°26' E 139°41'0 0.0
2018-Aug-13 08:30N 35°26' E 139°41'0 0.0
2018-Aug-13 08:00N 35°26' E 139°41'0 0.0
2018-Aug-13 07:30N 35°26' E 139°41'0 0.0
2018-Aug-13 07:00N 35°26' E 139°41'0 0.0
2018-Aug-13 06:30N 35°26' E 139°41'0 0.0
2018-Aug-13 06:00N 35°26' E 139°41'0 0.0
2018-Aug-13 05:30N 35°26' E 139°41'0 0.0
2018-Aug-13 05:00N 35°26' E 139°41'0 0.0
2018-Aug-13 04:30N 35°26' E 139°41'0 0.0
2018-Aug-13 04:00N 35°26' E 139°41'0 0.0
2018-Aug-13 03:30N 35°26' E 139°41'0 0.0
2018-Aug-13 03:00N 35°26' E 139°41'0 0.0
2018-Aug-13 02:30N 35°26' E 139°41'0 0.0
2018-Aug-13 02:00N 35°26' E 139°41'0 0.0
2018-Aug-13 01:30N 35°26' E 139°41'0 0.0
2018-Aug-13 01:00N 35°26' E 139°41'0 0.0
2018-Aug-13 00:30N 35°26' E 139°41'0 0.0
2018-Aug-13 00:00N 35°26' E 139°41'0 0.0
2018-Aug-12 23:30N 35°26' E 139°41'0 0.0
2018-Aug-12 23:00N 35°26' E 139°41'0 0.0
2018-Aug-12 22:30N 35°26' E 139°41'0 0.0
2018-Aug-12 22:00N 35°26' E 139°41'0 0.0
2018-Aug-12 21:30N 35°26' E 139°41'0 0.0
2018-Aug-12 21:00N 35°26' E 139°41'0 0.0
2018-Aug-12 20:30N 35°26' E 139°41'0 0.0
2018-Aug-12 20:00N 35°26' E 139°41'0 0.0
2018-Aug-12 19:30N 35°26' E 139°41'0 0.0
2018-Aug-12 19:00N 35°26' E 139°41'0 0.0
2018-Aug-12 18:30N 35°26' E 139°41'0 0.0
2018-Aug-12 18:00N 35°26' E 139°41'0 0.0
2018-Aug-12 17:30N 35°26' E 139°41'0 0.0
2018-Aug-12 17:00N 35°26' E 139°41'0 0.0
2018-Aug-12 16:30N 35°26' E 139°41'1 2.1
2018-Aug-12 16:00N 35°26' E 139°42'2 4.8
2018-Aug-12 15:30N 35°27' E 139°45'0 0.1
2018-Aug-12 14:57N 35°27' E 139°45'0 0.0
2018-Aug-12 14:30N 35°27' E 139°45'0 0.0
2018-Aug-12 14:00N 35°27' E 139°45'0 0.0
2018-Aug-12 13:30N 35°27' E 139°45'0 0.0
2018-Aug-12 13:00N 35°27' E 139°45'0 0.0
2018-Aug-12 12:30N 35°27' E 139°45'0 0.0
2018-Aug-12 12:00N 35°27' E 139°45'0 0.0
2018-Aug-12 11:30N 35°27' E 139°45'0 0.0
2018-Aug-12 11:00N 35°27' E 139°45'0 0.1
2018-Aug-12 10:30N 35°27' E 139°45'0 0.1
2018-Aug-12 10:00N 35°27' E 139°45'0 0.1
2018-Aug-12 09:30N 35°27' E 139°45'0 0.1
2018-Aug-12 09:00N 35°27' E 139°45'0 0.0
2018-Aug-12 08:30N 35°27' E 139°45'0 0.0
2018-Aug-12 07:57N 35°27' E 139°45'0 0.1
2018-Aug-12 07:30N 35°27' E 139°45'0 0.0
2018-Aug-12 07:00N 35°27' E 139°45'0 0.1
2018-Aug-12 06:30N 35°27' E 139°45'0 0.0
2018-Aug-12 06:00N 35°27' E 139°45'0 0.0
2018-Aug-12 05:30N 35°27' E 139°45'0 0.0
2018-Aug-12 05:01N 35°27' E 139°45'0 0.1
2018-Aug-12 04:31N 35°27' E 139°45'0 0.1
2018-Aug-12 04:01N 35°27' E 139°45'0 0.0
2018-Aug-12 03:29N 35°27' E 139°45'0 0.0
2018-Aug-12 03:01N 35°27' E 139°45'0 0.0
2018-Aug-12 02:31N 35°27' E 139°45'0 0.0
2018-Aug-12 02:01N 35°27' E 139°45'0 0.0
2018-Aug-12 01:31N 35°27' E 139°45'0 0.0
2018-Aug-12 01:01N 35°27' E 139°45'0 0.0
2018-Aug-12 00:31N 35°27' E 139°45'0 0.0
2018-Aug-12 00:00N 35°27' E 139°45'0 0.0
2018-Aug-11 23:30N 35°27' E 139°45'0 0.0
2018-Aug-11 23:00N 35°27' E 139°45'0 0.0
2018-Aug-11 22:30N 35°27' E 139°45'0 1.0
2018-Aug-11 22:01N 35°26' E 139°46'2 4.6
2018-Aug-11 21:30N 35°28' E 139°48'5 9.8
2018-Aug-11 21:00N 35°32' E 139°51'510.3
2018-Aug-11 20:30N 35°36' E 139°47'0 0.3
2018-Aug-11 19:58N 35°36' E 139°47'0 0.0
2018-Aug-11 11:19N 35°36' E 139°47'0 0.0
2018-Aug-11 10:49N 35°36' E 139°47'0 0.0
2018-Aug-11 10:25N 35°36' E 139°47'0 0.0
2018-Aug-11 09:49N 35°36' E 139°47'0 0.0
2018-Aug-11 09:25N 35°36' E 139°47'0 0.0
2018-Aug-11 08:55N 35°36' E 139°47'0 0.0
2018-Aug-11 08:25N 35°36' E 139°47'0 0.0
2018-Aug-11 07:25N 35°36' E 139°47'0 0.0
2018-Aug-11 06:55N 35°36' E 139°47'0 0.0
2018-Aug-11 05:52N 35°36' E 139°47'0 0.0
2018-Aug-11 05:25N 35°36' E 139°47'0 0.0
2018-Aug-11 04:23N 35°36' E 139°47'1 2.4
2018-Aug-11 04:00N 35°35' E 139°47'4 7.9
2018-Aug-11 03:30N 35°33' E 139°51'3 5.7
2018-Aug-11 03:00N 35°30' E 139°52'611.5
2018-Aug-11 02:30N 35°26' E 139°48'713.0
2018-Aug-11 02:00N 35°20' E 139°44'611.7
2018-Aug-11 01:30N 35°15' E 139°47'611.9
2018-Aug-11 01:00N 35°08' E 139°47'612.6
2018-Aug-11 00:30N 35°03' E 139°42'2 3.6
2018-Aug-11 00:00N 35°02' E 139°41'0 0.5
2018-Aug-10 23:30N 35°02' E 139°41'3 5.1
2018-Aug-10 23:00N 35°00' E 139°38'713.6
2018-Aug-10 22:30N 34°56' E 139°31'1314.5
2018-Aug-10 21:37N 34°48' E 139°19'315.3
2018-Aug-10 21:24N 34°46' E 139°16'  

Dump ship's entire track history